Terminal Aerodrome Forecast
Issued by NWS Wilmington, OH

Current Version | Previous Version | Graphics & Text | Print | Product List | Glossary On
Versions: 1 2 3 4 5 6 7 8 9 10 11 12 13 14 15 16 17 18 19 20 21 22 23 24 25 26
114
FTUS41 KILN 232002 AAC
TAFILN
TAF AMD
KILN 232002Z 2320/2418 32014G35KT 2SM +RA BR SCT011 BKN040 OVC050
     FM240100 21005KT P6SM VCSH OVC023
     FM240500 30006KT P6SM BKN045
     FM241000 30006KT P6SM SCT250
     FM241400 28012G20KT P6SM SCT040=

USA.gov is the U.S. government's official web portal to all federal, state and local government web resources and services.